sensor_id;sensor_type;location;lat;lon;timestamp;P1;durP1;ratioP1;P2;durP2;ratioP2
2760;SDS011;15420;48.636;9.798;2022-07-23T00:00:09;8.83;;;7.27;;
2760;SDS011;15420;48.636;9.798;2022-07-23T00:02:38;7.90;;;6.60;;
2760;SDS011;15420;48.636;9.798;2022-07-23T00:05:07;8.27;;;7.57;;
2760;SDS011;15420;48.636;9.798;2022-07-23T00:07:35;7.20;;;6.50;;
2760;SDS011;15420;48.636;9.798;2022-07-23T00:10:04;7.40;;;6.70;;
2760;SDS011;15420;48.636;9.798;2022-07-23T00:12:31;10.20;;;6.73;;
2760;SDS011;15420;48.636;9.798;2022-07-23T00:15:00;7.93;;;6.20;;
2760;SDS011;15420;48.636;9.798;2022-07-23T00:17:29;6.93;;;6.23;;
2760;SDS011;15420;48.636;9.798;2022-07-23T00:19:58;6.60;;;6.10;;
2760;SDS011;15420;48.636;9.798;2022-07-23T00:22:24;7.53;;;6.70;;
2760;SDS011;15420;48.636;9.798;2022-07-23T00:24:51;10.77;;;7.00;;
2760;SDS011;15420;48.636;9.798;2022-07-23T00:27:17;7.87;;;6.37;;
2760;SDS011;15420;48.636;9.798;2022-07-23T00:29:48;7.20;;;6.50;;
2760;SDS011;15420;48.636;9.798;2022-07-23T00:32:14;7.87;;;7.00;;
2760;SDS011;15420;48.636;9.798;2022-07-23T00:34:42;8.40;;;7.30;;
2760;SDS011;15420;48.636;9.798;2022-07-23T00:37:08;8.00;;;7.20;;
2760;SDS011;15420;48.636;9.798;2022-07-23T00:39:37;7.83;;;7.13;;
2760;SDS011;15420;48.636;9.798;2022-07-23T00:42:06;7.73;;;6.93;;
2760;SDS011;15420;48.636;9.798;2022-07-23T00:44:34;6.80;;;6.10;;
2760;SDS011;15420;48.636;9.798;2022-07-23T00:47:00;6.97;;;6.23;;
2760;SDS011;15420;48.636;9.798;2022-07-23T00:49:28;6.80;;;6.07;;
2760;SDS011;15420;48.636;9.798;2022-07-23T00:51:55;6.80;;;6.10;;
2760;SDS011;15420;48.636;9.798;2022-07-23T00:54:24;8.57;;;6.87;;
2760;SDS011;15420;48.636;9.798;2022-07-23T00:56:51;6.93;;;6.23;;
2760;SDS011;15420;48.636;9.798;2022-07-23T00:59:18;6.37;;;5.80;;
2760;SDS011;15420;48.636;9.798;2022-07-23T01:01:44;7.37;;;6.40;;
2760;SDS011;15420;48.636;9.798;2022-07-23T01:04:14;7.07;;;6.37;;
2760;SDS011;15420;48.636;9.798;2022-07-23T01:06:41;6.47;;;5.87;;
2760;SDS011;15420;48.636;9.798;2022-07-23T01:09:09;6.83;;;6.23;;
2760;SDS011;15420;48.636;9.798;2022-07-23T01:11:40;7.50;;;6.43;;
2760;SDS011;15420;48.636;9.798;2022-07-23T01:14:10;8.23;;;6.93;;
2760;SDS011;15420;48.636;9.798;2022-07-23T01:16:38;7.03;;;6.40;;
2760;SDS011;15420;48.636;9.798;2022-07-23T01:19:08;7.97;;;7.00;;
2760;SDS011;15420;48.636;9.798;2022-07-23T01:21:37;7.17;;;6.47;;
2760;SDS011;15420;48.636;9.798;2022-07-23T01:24:09;9.23;;;6.57;;
2760;SDS011;15420;48.636;9.798;2022-07-23T01:26:36;7.97;;;7.17;;
2760;SDS011;15420;48.636;9.798;2022-07-23T01:29:03;8.17;;;6.50;;
2760;SDS011;15420;48.636;9.798;2022-07-23T01:31:30;6.93;;;6.23;;
2760;SDS011;15420;48.636;9.798;2022-07-23T01:33:57;6.50;;;5.90;;
2760;SDS011;15420;48.636;9.798;2022-07-23T01:36:23;6.63;;;6.03;;
2760;SDS011;15420;48.636;9.798;2022-07-23T01:38:50;7.63;;;6.03;;
2760;SDS011;15420;48.636;9.798;2022-07-23T01:41:16;6.90;;;6.30;;
2760;SDS011;15420;48.636;9.798;2022-07-23T01:43:45;7.13;;;6.43;;
2760;SDS011;15420;48.636;9.798;2022-07-23T01:46:11;6.57;;;6.00;;
2760;SDS011;15420;48.636;9.798;2022-07-23T01:48:38;6.47;;;5.57;;
2760;SDS011;15420;48.636;9.798;2022-07-23T01:51:04;7.40;;;6.70;;
2760;SDS011;15420;48.636;9.798;2022-07-23T01:53:30;7.20;;;6.43;;
2760;SDS011;15420;48.636;9.798;2022-07-23T01:55:59;7.50;;;6.70;;
2760;SDS011;15420;48.636;9.798;2022-07-23T01:58:28;8.13;;;6.47;;
2760;SDS011;15420;48.636;9.798;2022-07-23T02:00:54;7.40;;;6.80;;
2760;SDS011;15420;48.636;9.798;2022-07-23T02:03:21;7.20;;;6.50;;
2760;SDS011;15420;48.636;9.798;2022-07-23T02:05:48;6.77;;;5.60;;
2760;SDS011;15420;48.636;9.798;2022-07-23T02:08:15;9.60;;;6.70;;
2760;SDS011;15420;48.636;9.798;2022-07-23T02:10:44;6.70;;;6.10;;
2760;SDS011;15420;48.636;9.798;2022-07-23T02:13:10;6.83;;;6.23;;
2760;SDS011;15420;48.636;9.798;2022-07-23T02:15:37;8.73;;;6.60;;
2760;SDS011;15420;48.636;9.798;2022-07-23T02:18:05;7.40;;;6.23;;
2760;SDS011;15420;48.636;9.798;2022-07-23T02:20:34;6.90;;;6.30;;
2760;SDS011;15420;48.636;9.798;2022-07-23T02:23:03;6.40;;;5.80;;
2760;SDS011;15420;48.636;9.798;2022-07-23T02:25:30;7.33;;;6.37;;
2760;SDS011;15420;48.636;9.798;2022-07-23T02:27:56;6.47;;;5.90;;
2760;SDS011;15420;48.636;9.798;2022-07-23T02:30:22;9.00;;;7.53;;
2760;SDS011;15420;48.636;9.798;2022-07-23T02:32:48;7.70;;;6.13;;
2760;SDS011;15420;48.636;9.798;2022-07-23T02:35:15;7.67;;;6.60;;
2760;SDS011;15420;48.636;9.798;2022-07-23T02:37:41;6.87;;;6.27;;
2760;SDS011;15420;48.636;9.798;2022-07-23T02:40:07;6.63;;;5.83;;
2760;SDS011;15420;48.636;9.798;2022-07-23T02:42:36;7.10;;;6.43;;
2760;SDS011;15420;48.636;9.798;2022-07-23T02:45:03;7.37;;;6.60;;
2760;SDS011;15420;48.636;9.798;2022-07-23T02:47:29;7.00;;;6.37;;
2760;SDS011;15420;48.636;9.798;2022-07-23T02:49:57;6.70;;;6.00;;
2760;SDS011;15420;48.636;9.798;2022-07-23T02:52:30;6.73;;;6.03;;
2760;SDS011;15420;48.636;9.798;2022-07-23T02:54:58;7.03;;;6.33;;
2760;SDS011;15420;48.636;9.798;2022-07-23T02:57:27;7.23;;;6.63;;
2760;SDS011;15420;48.636;9.798;2022-07-23T02:59:55;6.70;;;6.07;;
2760;SDS011;15420;48.636;9.798;2022-07-23T03:02:21;7.27;;;6.53;;
2760;SDS011;15420;48.636;9.798;2022-07-23T03:04:48;6.43;;;5.77;;
2760;SDS011;15420;48.636;9.798;2022-07-23T03:07:15;6.40;;;5.80;;
2760;SDS011;15420;48.636;9.798;2022-07-23T03:09:47;10.07;;;7.33;;
2760;SDS011;15420;48.636;9.798;2022-07-23T03:12:13;6.80;;;6.20;;
2760;SDS011;15420;48.636;9.798;2022-07-23T03:14:40;7.37;;;6.67;;
2760;SDS011;15420;48.636;9.798;2022-07-23T03:17:07;9.33;;;7.30;;
2760;SDS011;15420;48.636;9.798;2022-07-23T03:19:34;7.80;;;7.10;;
2760;SDS011;15420;48.636;9.798;2022-07-23T03:22:00;7.53;;;6.73;;
2760;SDS011;15420;48.636;9.798;2022-07-23T03:24:26;9.23;;;6.60;;
2760;SDS011;15420;48.636;9.798;2022-07-23T03:27:11;7.80;;;7.03;;
2760;SDS011;15420;48.636;9.798;2022-07-23T03:29:37;7.60;;;6.90;;
2760;SDS011;15420;48.636;9.798;2022-07-23T03:32:03;8.17;;;6.60;;
2760;SDS011;15420;48.636;9.798;2022-07-23T03:34:30;7.77;;;7.00;;
2760;SDS011;15420;48.636;9.798;2022-07-23T03:36:56;7.40;;;6.70;;
2760;SDS011;15420;48.636;9.798;2022-07-23T03:39:22;7.57;;;6.73;;
2760;SDS011;15420;48.636;9.798;2022-07-23T03:41:48;12.87;;;6.93;;
2760;SDS011;15420;48.636;9.798;2022-07-23T03:44:14;8.10;;;7.27;;
2760;SDS011;15420;48.636;9.798;2022-07-23T03:46:40;7.03;;;6.43;;
2760;SDS011;15420;48.636;9.798;2022-07-23T03:49:11;7.13;;;6.43;;
2760;SDS011;15420;48.636;9.798;2022-07-23T03:51:37;6.70;;;6.10;;
2760;SDS011;15420;48.636;9.798;2022-07-23T03:54:03;7.03;;;6.33;;
2760;SDS011;15420;48.636;9.798;2022-07-23T03:56:32;6.97;;;6.33;;
2760;SDS011;15420;48.636;9.798;2022-07-23T03:59:00;6.80;;;6.13;;
2760;SDS011;15420;48.636;9.798;2022-07-23T04:01:27;7.07;;;6.37;;
2760;SDS011;15420;48.636;9.798;2022-07-23T04:03:53;7.13;;;6.43;;
2760;SDS011;15420;48.636;9.798;2022-07-23T04:06:24;6.70;;;6.10;;
2760;SDS011;15420;48.636;9.798;2022-07-23T04:08:50;7.40;;;6.50;;
2760;SDS011;15420;48.636;9.798;2022-07-23T04:11:16;6.77;;;6.07;;
2760;SDS011;15420;48.636;9.798;2022-07-23T04:13:42;7.60;;;6.33;;
2760;SDS011;15420;48.636;9.798;2022-07-23T04:16:11;7.50;;;6.73;;
2760;SDS011;15420;48.636;9.798;2022-07-23T04:18:37;7.20;;;6.60;;
2760;SDS011;15420;48.636;9.798;2022-07-23T04:21:04;7.50;;;6.70;;
2760;SDS011;15420;48.636;9.798;2022-07-23T04:23:30;7.00;;;6.30;;
2760;SDS011;15420;48.636;9.798;2022-07-23T04:25:56;7.30;;;6.70;;
2760;SDS011;15420;48.636;9.798;2022-07-23T04:28:25;6.87;;;6.13;;
2760;SDS011;15420;48.636;9.798;2022-07-23T04:30:51;7.33;;;6.57;;
2760;SDS011;15420;48.636;9.798;2022-07-23T04:33:20;7.13;;;6.43;;
2760;SDS011;15420;48.636;9.798;2022-07-23T04:35:46;6.53;;;5.93;;
2760;SDS011;15420;48.636;9.798;2022-07-23T04:38:12;7.37;;;6.67;;
2760;SDS011;15420;48.636;9.798;2022-07-23T04:40:41;7.23;;;6.53;;
2760;SDS011;15420;48.636;9.798;2022-07-23T04:43:12;8.60;;;6.57;;
2760;SDS011;15420;48.636;9.798;2022-07-23T04:45:38;7.40;;;6.73;;
2760;SDS011;15420;48.636;9.798;2022-07-23T04:48:04;7.07;;;6.37;;
2760;SDS011;15420;48.636;9.798;2022-07-23T04:50:30;7.63;;;6.93;;
2760;SDS011;15420;48.636;9.798;2022-07-23T04:52:56;6.90;;;6.20;;
2760;SDS011;15420;48.636;9.798;2022-07-23T04:55:27;9.30;;;6.93;;
2760;SDS011;15420;48.636;9.798;2022-07-23T04:57:56;6.90;;;6.30;;
2760;SDS011;15420;48.636;9.798;2022-07-23T05:00:22;7.90;;;6.60;;
2760;SDS011;15420;48.636;9.798;2022-07-23T05:02:48;7.57;;;6.70;;
2760;SDS011;15420;48.636;9.798;2022-07-23T05:05:16;7.80;;;6.70;;
2760;SDS011;15420;48.636;9.798;2022-07-23T05:07:45;7.67;;;5.73;;
2760;SDS011;15420;48.636;9.798;2022-07-23T05:10:13;7.40;;;6.70;;
2760;SDS011;15420;48.636;9.798;2022-07-23T05:12:42;7.90;;;6.90;;
2760;SDS011;15420;48.636;9.798;2022-07-23T05:15:08;8.10;;;6.90;;
2760;SDS011;15420;48.636;9.798;2022-07-23T05:17:34;7.20;;;6.60;;
2760;SDS011;15420;48.636;9.798;2022-07-23T05:20:00;9.63;;;7.30;;
2760;SDS011;15420;48.636;9.798;2022-07-23T05:22:27;9.00;;;6.50;;
2760;SDS011;15420;48.636;9.798;2022-07-23T05:24:53;8.23;;;6.73;;
2760;SDS011;15420;48.636;9.798;2022-07-23T05:27:21;7.23;;;6.53;;
2760;SDS011;15420;48.636;9.798;2022-07-23T05:29:50;7.37;;;6.70;;
2760;SDS011;15420;48.636;9.798;2022-07-23T05:32:18;10.13;;;6.70;;
2760;SDS011;15420;48.636;9.798;2022-07-23T05:34:45;6.60;;;5.80;;
2760;SDS011;15420;48.636;9.798;2022-07-23T05:37:11;6.77;;;6.17;;
2760;SDS011;15420;48.636;9.798;2022-07-23T05:39:41;6.70;;;6.03;;
2760;SDS011;15420;48.636;9.798;2022-07-23T05:42:12;7.73;;;6.73;;
2760;SDS011;15420;48.636;9.798;2022-07-23T05:44:38;6.83;;;6.20;;
2760;SDS011;15420;48.636;9.798;2022-07-23T05:47:07;6.93;;;6.23;;
2760;SDS011;15420;48.636;9.798;2022-07-23T05:49:33;6.83;;;6.13;;
2760;SDS011;15420;48.636;9.798;2022-07-23T05:52:04;10.67;;;6.60;;
2760;SDS011;15420;48.636;9.798;2022-07-23T05:54:33;7.10;;;6.40;;
2760;SDS011;15420;48.636;9.798;2022-07-23T05:57:00;7.00;;;6.30;;
2760;SDS011;15420;48.636;9.798;2022-07-23T05:59:27;8.07;;;7.27;;
2760;SDS011;15420;48.636;9.798;2022-07-23T06:01:55;6.90;;;6.30;;
2760;SDS011;15420;48.636;9.798;2022-07-23T06:04:21;6.80;;;6.20;;
2760;SDS011;15420;48.636;9.798;2022-07-23T06:06:48;7.47;;;6.77;;
2760;SDS011;15420;48.636;9.798;2022-07-23T06:09:16;7.57;;;6.77;;
2760;SDS011;15420;48.636;9.798;2022-07-23T06:11:45;7.70;;;6.23;;
2760;SDS011;15420;48.636;9.798;2022-07-23T06:14:11;8.10;;;7.10;;
2760;SDS011;15420;48.636;9.798;2022-07-23T06:16:37;9.07;;;6.90;;
2760;SDS011;15420;48.636;9.798;2022-07-23T06:19:05;6.93;;;6.13;;
2760;SDS011;15420;48.636;9.798;2022-07-23T06:21:31;11.20;;;6.30;;
2760;SDS011;15420;48.636;9.798;2022-07-23T06:23:57;6.43;;;5.90;;
2760;SDS011;15420;48.636;9.798;2022-07-23T06:26:26;6.63;;;5.93;;
2760;SDS011;15420;48.636;9.798;2022-07-23T06:28:52;9.63;;;6.90;;
2760;SDS011;15420;48.636;9.798;2022-07-23T06:31:21;8.77;;;6.33;;
2760;SDS011;15420;48.636;9.798;2022-07-23T06:33:51;7.93;;;7.13;;
2760;SDS011;15420;48.636;9.798;2022-07-23T06:36:20;7.97;;;7.07;;
2760;SDS011;15420;48.636;9.798;2022-07-23T06:38:51;7.27;;;6.60;;
2760;SDS011;15420;48.636;9.798;2022-07-23T06:41:19;6.40;;;5.90;;
2760;SDS011;15420;48.636;9.798;2022-07-23T06:43:45;7.13;;;6.43;;
2760;SDS011;15420;48.636;9.798;2022-07-23T06:46:14;6.87;;;6.23;;
2760;SDS011;15420;48.636;9.798;2022-07-23T06:48:40;7.00;;;6.27;;
2760;SDS011;15420;48.636;9.798;2022-07-23T06:51:06;6.67;;;6.07;;
2760;SDS011;15420;48.636;9.798;2022-07-23T06:53:32;8.40;;;5.80;;
2760;SDS011;15420;48.636;9.798;2022-07-23T06:56:00;6.00;;;5.40;;
2760;SDS011;15420;48.636;9.798;2022-07-23T06:58:27;6.63;;;6.00;;
2760;SDS011;15420;48.636;9.798;2022-07-23T07:00:53;6.90;;;6.20;;
2760;SDS011;15420;48.636;9.798;2022-07-23T07:03:19;6.60;;;5.93;;
2760;SDS011;15420;48.636;9.798;2022-07-23T07:05:50;6.83;;;6.23;;
2760;SDS011;15420;48.636;9.798;2022-07-23T07:08:17;6.80;;;6.07;;
2760;SDS011;15420;48.636;9.798;2022-07-23T07:10:45;7.17;;;6.47;;
2760;SDS011;15420;48.636;9.798;2022-07-23T07:13:14;6.10;;;5.50;;
2760;SDS011;15420;48.636;9.798;2022-07-23T07:15:40;7.13;;;6.47;;
2760;SDS011;15420;48.636;9.798;2022-07-23T07:18:06;6.80;;;6.20;;
2760;SDS011;15420;48.636;9.798;2022-07-23T07:20:32;10.00;;;5.90;;
2760;SDS011;15420;48.636;9.798;2022-07-23T07:23:01;5.93;;;5.43;;
2760;SDS011;15420;48.636;9.798;2022-07-23T07:25:32;5.90;;;5.40;;
2760;SDS011;15420;48.636;9.798;2022-07-23T07:27:58;6.70;;;6.10;;
2760;SDS011;15420;48.636;9.798;2022-07-23T07:30:24;5.87;;;5.27;;
2760;SDS011;15420;48.636;9.798;2022-07-23T07:32:50;6.47;;;5.87;;
2760;SDS011;15420;48.636;9.798;2022-07-23T07:35:16;6.93;;;6.23;;
2760;SDS011;15420;48.636;9.798;2022-07-23T07:37:45;5.67;;;5.07;;
2760;SDS011;15420;48.636;9.798;2022-07-23T07:40:11;5.87;;;5.37;;
2760;SDS011;15420;48.636;9.798;2022-07-23T07:42:46;6.13;;;5.60;;
2760;SDS011;15420;48.636;9.798;2022-07-23T07:45:19;6.03;;;5.53;;
2760;SDS011;15420;48.636;9.798;2022-07-23T07:47:46;9.60;;;7.30;;
2760;SDS011;15420;48.636;9.798;2022-07-23T07:50:12;6.57;;;5.97;;
2760;SDS011;15420;48.636;9.798;2022-07-23T07:52:39;6.17;;;5.67;;
2760;SDS011;15420;48.636;9.798;2022-07-23T07:55:06;6.20;;;5.70;;
2760;SDS011;15420;48.636;9.798;2022-07-23T07:57:36;7.33;;;5.90;;
2760;SDS011;15420;48.636;9.798;2022-07-23T08:00:06;6.57;;;5.97;;
2760;SDS011;15420;48.636;9.798;2022-07-23T08:05:14;6.33;;;5.83;;
2760;SDS011;15420;48.636;9.798;2022-07-23T08:07:44;6.43;;;5.77;;
2760;SDS011;15420;48.636;9.798;2022-07-23T08:10:10;6.90;;;6.30;;
2760;SDS011;15420;48.636;9.798;2022-07-23T08:12:46;6.57;;;5.97;;
2760;SDS011;15420;48.636;9.798;2022-07-23T08:15:15;7.90;;;6.30;;
2760;SDS011;15420;48.636;9.798;2022-07-23T08:17:46;6.33;;;5.73;;
2760;SDS011;15420;48.636;9.798;2022-07-23T08:20:15;6.70;;;6.10;;
2760;SDS011;15420;48.636;9.798;2022-07-23T08:25:23;6.77;;;6.17;;
2760;SDS011;15420;48.636;9.798;2022-07-23T08:27:53;6.60;;;6.00;;
2760;SDS011;15420;48.636;9.798;2022-07-23T08:30:21;7.40;;;6.70;;
2760;SDS011;15420;48.636;9.798;2022-07-23T08:32:57;6.57;;;5.97;;
2760;SDS011;15420;48.636;9.798;2022-07-23T08:35:33;7.13;;;6.47;;
2760;SDS011;15420;48.636;9.798;2022-07-23T08:38:02;7.70;;;7.00;;
2760;SDS011;15420;48.636;9.798;2022-07-23T08:40:34;7.30;;;6.60;;
2760;SDS011;15420;48.636;9.798;2022-07-23T08:43:05;7.40;;;6.70;;
2760;SDS011;15420;48.636;9.798;2022-07-23T08:45:35;7.03;;;6.43;;
2760;SDS011;15420;48.636;9.798;2022-07-23T08:48:16;6.90;;;6.30;;
2760;SDS011;15420;48.636;9.798;2022-07-23T08:50:43;6.57;;;5.83;;
2760;SDS011;15420;48.636;9.798;2022-07-23T08:53:10;7.23;;;6.57;;
2760;SDS011;15420;48.636;9.798;2022-07-23T08:55:36;7.27;;;6.57;;
2760;SDS011;15420;48.636;9.798;2022-07-23T08:58:05;7.00;;;6.33;;
2760;SDS011;15420;48.636;9.798;2022-07-23T09:00:31;7.07;;;6.37;;
2760;SDS011;15420;48.636;9.798;2022-07-23T09:03:00;7.00;;;6.40;;
2760;SDS011;15420;48.636;9.798;2022-07-23T09:05:26;6.90;;;6.30;;
2760;SDS011;15420;48.636;9.798;2022-07-23T09:10:57;7.77;;;7.00;;
2760;SDS011;15420;48.636;9.798;2022-07-23T09:16:03;7.17;;;6.47;;
2760;SDS011;15420;48.636;9.798;2022-07-23T09:18:54;7.40;;;6.73;;
2760;SDS011;15420;48.636;9.798;2022-07-23T09:21:25;7.10;;;6.50;;
2760;SDS011;15420;48.636;9.798;2022-07-23T09:28:53;7.07;;;6.40;;
2760;SDS011;15420;48.636;9.798;2022-07-23T09:31:20;6.50;;;6.00;;
2760;SDS011;15420;48.636;9.798;2022-07-23T09:33:48;7.60;;;6.90;;
2760;SDS011;15420;48.636;9.798;2022-07-23T09:36:26;7.23;;;6.30;;
2760;SDS011;15420;48.636;9.798;2022-07-23T09:38:53;7.00;;;6.40;;
2760;SDS011;15420;48.636;9.798;2022-07-23T09:41:22;7.17;;;6.57;;
2760;SDS011;15420;48.636;9.798;2022-07-23T09:43:54;6.73;;;6.23;;
2760;SDS011;15420;48.636;9.798;2022-07-23T09:46:26;6.80;;;6.03;;
2760;SDS011;15420;48.636;9.798;2022-07-23T09:48:53;7.60;;;6.80;;
2760;SDS011;15420;48.636;9.798;2022-07-23T09:51:23;7.10;;;6.60;;
2760;SDS011;15420;48.636;9.798;2022-07-23T09:54:08;7.90;;;7.17;;
2760;SDS011;15420;48.636;9.798;2022-07-23T09:56:50;8.40;;;7.27;;
2760;SDS011;15420;48.636;9.798;2022-07-23T09:59:18;7.50;;;6.80;;
2760;SDS011;15420;48.636;9.798;2022-07-23T10:01:47;8.33;;;7.63;;
2760;SDS011;15420;48.636;9.798;2022-07-23T10:04:17;6.80;;;6.20;;
2760;SDS011;15420;48.636;9.798;2022-07-23T10:06:46;7.57;;;6.80;;
2760;SDS011;15420;48.636;9.798;2022-07-23T10:09:12;6.90;;;6.30;;
2760;SDS011;15420;48.636;9.798;2022-07-23T10:11:43;7.77;;;6.97;;
2760;SDS011;15420;48.636;9.798;2022-07-23T10:14:09;7.50;;;6.80;;
2760;SDS011;15420;48.636;9.798;2022-07-23T10:16:36;7.75;;;7.05;;
2760;SDS011;15420;48.636;9.798;2022-07-23T10:19:04;6.97;;;6.37;;
2760;SDS011;15420;48.636;9.798;2022-07-23T10:22:04;7.60;;;6.90;;
2760;SDS011;15420;48.636;9.798;2022-07-23T10:32:52;6.93;;;6.33;;
2760;SDS011;15420;48.636;9.798;2022-07-23T10:35:38;7.73;;;7.13;;
2760;SDS011;15420;48.636;9.798;2022-07-23T10:38:22;7.23;;;6.53;;
2760;SDS011;15420;48.636;9.798;2022-07-23T10:41:02;6.73;;;6.13;;
2760;SDS011;15420;48.636;9.798;2022-07-23T10:43:32;6.40;;;5.80;;
2760;SDS011;15420;48.636;9.798;2022-07-23T10:48:43;7.80;;;6.70;;
2760;SDS011;15420;48.636;9.798;2022-07-23T10:51:14;7.00;;;6.40;;
2760;SDS011;15420;48.636;9.798;2022-07-23T10:53:59;7.20;;;6.60;;
2760;SDS011;15420;48.636;9.798;2022-07-23T11:02:31;7.00;;;6.07;;
2760;SDS011;15420;48.636;9.798;2022-07-23T11:07:30;5.97;;;5.57;;
2760;SDS011;15420;48.636;9.798;2022-07-23T11:09:56;6.13;;;5.67;;
2760;SDS011;15420;48.636;9.798;2022-07-23T11:15:13;5.83;;;5.33;;
2760;SDS011;15420;48.636;9.798;2022-07-23T11:25:08;6.50;;;5.90;;
2760;SDS011;15420;48.636;9.798;2022-07-23T11:27:41;6.00;;;5.37;;
2760;SDS011;15420;48.636;9.798;2022-07-23T11:30:10;6.37;;;5.70;;
2760;SDS011;15420;48.636;9.798;2022-07-23T11:33:15;6.37;;;5.87;;
2760;SDS011;15420;48.636;9.798;2022-07-23T11:35:47;6.43;;;5.93;;
2760;SDS011;15420;48.636;9.798;2022-07-23T11:38:24;7.43;;;6.27;;
2760;SDS011;15420;48.636;9.798;2022-07-23T11:40:53;6.80;;;6.20;;
2760;SDS011;15420;48.636;9.798;2022-07-23T11:43:22;6.93;;;6.33;;
2760;SDS011;15420;48.636;9.798;2022-07-23T11:45:53;6.43;;;5.53;;
2760;SDS011;15420;48.636;9.798;2022-07-23T11:48:25;6.37;;;5.80;;
2760;SDS011;15420;48.636;9.798;2022-07-23T11:50:56;7.10;;;6.40;;
2760;SDS011;15420;48.636;9.798;2022-07-23T11:53:27;6.20;;;5.23;;
2760;SDS011;15420;48.636;9.798;2022-07-23T11:56:05;6.23;;;5.70;;
2760;SDS011;15420;48.636;9.798;2022-07-23T11:58:32;6.30;;;5.50;;
2760;SDS011;15420;48.636;9.798;2022-07-23T12:01:00;6.40;;;5.80;;
2760;SDS011;15420;48.636;9.798;2022-07-23T12:03:28;6.47;;;5.90;;
2760;SDS011;15420;48.636;9.798;2022-07-23T12:05:57;6.68;;;6.13;;
2760;SDS011;15420;48.636;9.798;2022-07-23T12:08:27;6.72;;;6.13;;
2760;SDS011;15420;48.636;9.798;2022-07-23T12:10:55;6.20;;;5.75;;
2760;SDS011;15420;48.636;9.798;2022-07-23T12:13:22;5.85;;;5.22;;
2760;SDS011;15420;48.636;9.798;2022-07-23T12:15:50;7.18;;;5.90;;
2760;SDS011;15420;48.636;9.798;2022-07-23T12:18:23;6.30;;;5.70;;
2760;SDS011;15420;48.636;9.798;2022-07-23T12:20:54;5.47;;;5.07;;
2760;SDS011;15420;48.636;9.798;2022-07-23T12:23:26;6.63;;;5.55;;
2760;SDS011;15420;48.636;9.798;2022-07-23T12:25:52;5.57;;;5.13;;
2760;SDS011;15420;48.636;9.798;2022-07-23T12:28:20;5.47;;;5.07;;
2760;SDS011;15420;48.636;9.798;2022-07-23T12:30:54;5.68;;;5.28;;
2760;SDS011;15420;48.636;9.798;2022-07-23T12:33:28;6.32;;;5.78;;
2760;SDS011;15420;48.636;9.798;2022-07-23T12:36:04;6.15;;;5.75;;
2760;SDS011;15420;48.636;9.798;2022-07-23T12:38:52;5.80;;;5.30;;
2760;SDS011;15420;48.636;9.798;2022-07-23T12:41:20;6.10;;;5.50;;
2760;SDS011;15420;48.636;9.798;2022-07-23T12:43:47;5.80;;;5.38;;
2760;SDS011;15420;48.636;9.798;2022-07-23T12:46:16;5.53;;;5.13;;
2760;SDS011;15420;48.636;9.798;2022-07-23T12:51:29;6.18;;;5.68;;
2760;SDS011;15420;48.636;9.798;2022-07-23T12:56:37;6.15;;;5.65;;
2760;SDS011;15420;48.636;9.798;2022-07-23T12:59:13;5.55;;;5.05;;
2760;SDS011;15420;48.636;9.798;2022-07-23T13:01:44;5.75;;;5.25;;
2760;SDS011;15420;48.636;9.798;2022-07-23T13:04:23;5.57;;;5.07;;
2760;SDS011;15420;48.636;9.798;2022-07-23T13:06:53;5.82;;;5.40;;
2760;SDS011;15420;48.636;9.798;2022-07-23T13:09:28;4.78;;;4.38;;
2760;SDS011;15420;48.636;9.798;2022-07-23T13:11:59;5.00;;;4.65;;
2760;SDS011;15420;48.636;9.798;2022-07-23T13:14:25;4.55;;;4.25;;
2760;SDS011;15420;48.636;9.798;2022-07-23T13:16:55;5.05;;;4.65;;
2760;SDS011;15420;48.636;9.798;2022-07-23T13:19:23;5.20;;;4.70;;
2760;SDS011;15420;48.636;9.798;2022-07-23T13:21:51;5.07;;;4.68;;
2760;SDS011;15420;48.636;9.798;2022-07-23T13:24:20;4.80;;;4.50;;
2760;SDS011;15420;48.636;9.798;2022-07-23T13:26:49;4.13;;;3.85;;
2760;SDS011;15420;48.636;9.798;2022-07-23T13:29:17;5.28;;;4.88;;
2760;SDS011;15420;48.636;9.798;2022-07-23T13:31:46;4.38;;;4.07;;
2760;SDS011;15420;48.636;9.798;2022-07-23T13:34:17;5.35;;;4.85;;
2760;SDS011;15420;48.636;9.798;2022-07-23T13:36:43;5.05;;;4.63;;
2760;SDS011;15420;48.636;9.798;2022-07-23T13:39:09;4.47;;;4.18;;
2760;SDS011;15420;48.636;9.798;2022-07-23T13:41:38;4.63;;;4.25;;
2760;SDS011;15420;48.636;9.798;2022-07-23T13:44:04;4.57;;;4.28;;
2760;SDS011;15420;48.636;9.798;2022-07-23T13:46:33;4.45;;;4.15;;
2760;SDS011;15420;48.636;9.798;2022-07-23T13:49:00;5.10;;;4.70;;
2760;SDS011;15420;48.636;9.798;2022-07-23T13:51:26;4.53;;;4.22;;
2760;SDS011;15420;48.636;9.798;2022-07-23T13:53:52;4.43;;;4.13;;
2760;SDS011;15420;48.636;9.798;2022-07-23T13:56:22;4.57;;;4.28;;
2760;SDS011;15420;48.636;9.798;2022-07-23T13:58:50;4.75;;;4.45;;
2760;SDS011;15420;48.636;9.798;2022-07-23T14:01:18;4.78;;;4.47;;
2760;SDS011;15420;48.636;9.798;2022-07-23T14:03:44;4.40;;;4.10;;
2760;SDS011;15420;48.636;9.798;2022-07-23T14:06:13;4.55;;;4.25;;
2760;SDS011;15420;48.636;9.798;2022-07-23T14:08:39;5.15;;;4.70;;
2760;SDS011;15420;48.636;9.798;2022-07-23T14:11:05;4.75;;;4.45;;
2760;SDS011;15420;48.636;9.798;2022-07-23T14:13:31;4.70;;;4.35;;
2760;SDS011;15420;48.636;9.798;2022-07-23T14:15:57;4.93;;;4.53;;
2760;SDS011;15420;48.636;9.798;2022-07-23T14:18:24;5.22;;;4.88;;
2760;SDS011;15420;48.636;9.798;2022-07-23T14:20:52;4.88;;;4.57;;
2760;SDS011;15420;48.636;9.798;2022-07-23T14:23:20;5.32;;;4.90;;
2760;SDS011;15420;48.636;9.798;2022-07-23T14:25:49;4.80;;;4.50;;
2760;SDS011;15420;48.636;9.798;2022-07-23T14:28:15;4.85;;;4.55;;
2760;SDS011;15420;48.636;9.798;2022-07-23T14:30:41;4.70;;;4.40;;
2760;SDS011;15420;48.636;9.798;2022-07-23T14:33:08;3.88;;;3.60;;
2760;SDS011;15420;48.636;9.798;2022-07-23T14:35:38;4.53;;;4.22;;
2760;SDS011;15420;48.636;9.798;2022-07-23T14:38:07;4.97;;;4.53;;
2760;SDS011;15420;48.636;9.798;2022-07-23T14:40:33;4.65;;;4.35;;
2760;SDS011;15420;48.636;9.798;2022-07-23T14:43:01;7.03;;;4.13;;
2760;SDS011;15420;48.636;9.798;2022-07-23T14:45:28;4.63;;;4.22;;
2760;SDS011;15420;48.636;9.798;2022-07-23T14:47:58;5.13;;;4.35;;
2760;SDS011;15420;48.636;9.798;2022-07-23T14:50:25;4.85;;;4.45;;
2760;SDS011;15420;48.636;9.798;2022-07-23T14:52:51;5.50;;;4.93;;
2760;SDS011;15420;48.636;9.798;2022-07-23T14:55:17;4.95;;;4.53;;
2760;SDS011;15420;48.636;9.798;2022-07-23T14:57:45;4.70;;;4.40;;
2760;SDS011;15420;48.636;9.798;2022-07-23T15:00:14;5.25;;;4.85;;
2760;SDS011;15420;48.636;9.798;2022-07-23T15:02:41;5.20;;;4.80;;
2760;SDS011;15420;48.636;9.798;2022-07-23T15:05:09;5.15;;;4.57;;
2760;SDS011;15420;48.636;9.798;2022-07-23T15:07:38;5.28;;;4.88;;
2760;SDS011;15420;48.636;9.798;2022-07-23T15:10:04;5.38;;;4.97;;
2760;SDS011;15420;48.636;9.798;2022-07-23T15:12:33;5.32;;;4.93;;
2760;SDS011;15420;48.636;9.798;2022-07-23T15:14:59;5.35;;;4.95;;
2760;SDS011;15420;48.636;9.798;2022-07-23T15:17:27;5.75;;;5.18;;
2760;SDS011;15420;48.636;9.798;2022-07-23T15:19:57;5.53;;;5.13;;
2760;SDS011;15420;48.636;9.798;2022-07-23T15:22:25;5.95;;;5.45;;
2760;SDS011;15420;48.636;9.798;2022-07-23T15:24:53;5.78;;;5.38;;
2760;SDS011;15420;48.636;9.798;2022-07-23T15:27:20;6.88;;;6.28;;
2760;SDS011;15420;48.636;9.798;2022-07-23T15:29:46;6.13;;;5.53;;
2760;SDS011;15420;48.636;9.798;2022-07-23T15:32:14;5.75;;;5.25;;
2760;SDS011;15420;48.636;9.798;2022-07-23T15:34:43;6.00;;;5.50;;
2760;SDS011;15420;48.636;9.798;2022-07-23T15:37:11;6.03;;;5.53;;
2760;SDS011;15420;48.636;9.798;2022-07-23T15:39:37;5.47;;;5.07;;
2760;SDS011;15420;48.636;9.798;2022-07-23T15:42:06;6.50;;;5.15;;
2760;SDS011;15420;48.636;9.798;2022-07-23T15:44:32;5.30;;;4.90;;
2760;SDS011;15420;48.636;9.798;2022-07-23T15:46:59;5.70;;;5.20;;
2760;SDS011;15420;48.636;9.798;2022-07-23T15:49:26;5.20;;;4.90;;
2760;SDS011;15420;48.636;9.798;2022-07-23T15:51:52;5.07;;;4.78;;
2760;SDS011;15420;48.636;9.798;2022-07-23T15:54:19;5.15;;;4.75;;
2760;SDS011;15420;48.636;9.798;2022-07-23T15:56:46;5.60;;;5.20;;
2760;SDS011;15420;48.636;9.798;2022-07-23T15:59:13;5.00;;;4.60;;